NZAA

Auckland International Airport

Auckland, New Zealand
METAR NZAA 171000Z AUTO 03021KT 9999 -RA FEW025/// SCT045/// BKN100/// 21/18 Q1017 TEMPO FM1100 5000 SHRA
Observed Flight Rules
Jan-17 @ 10:00 UTC (41 minutes ago) Visual Flight Rules
Wind Visibility Clouds Conditions
30° at 21 knots 10,000+ meters
  • Few at 2,500' AGL
  • Scattered at 4,500' AGL
  • Broken at 10,000' AGL
  • Light Rain
Temperatures Readings
Current 21°C / 70°F
Dewpoint 18°C / 64°F
Humidity 83%
Altimeter 30.03" Hg
Pressure 1017 hPa
Elevation 6
METAR NZAA 171000Z AUTO 03021KT 9999 -RA FEW025/// SCT045/// BKN100/// 21/18 Q1017 TEMPO FM1100 5000 SHRA
Observed Flight Rules
Jan-17 @ 10:00 UTC
(41 minutes ago)
VFR
Wind Visibility
30° at 21 knots 10,000+ meters
Clouds
  • Few at 2,500' AGL
  • Scattered at 4,500' AGL
  • Broken at 10,000' AGL
Conditions
  • Light Rain
Temperature Dewpoint
21°C / 70°F 18°C / 64°F
Humidity Altimeter Pressure
83% 30.03" Hg 1017 hPa